Latest Weather Observations for Orbost

IDV60801

Issued at 9:35 am EDT Saturday 25 October 2014 (issued every 30 minutes, with the page automatically refreshed every 10 minutes)

About weather observations | Map of weather stations | Latest weather observations for VIC | Other Formats
Station Details ID: 084145 Name: ORBOST Lat: -37.69 Lon: 148.47 Height: 62.65 m
Data from the previous 72 hours. | See also: Recent months at Orbost
Date/Time
EDT
Temp
°C
App
Temp
°C
Dew
Point
Rel
Hum
%
Delta-T
°C
Wind Press
QNH
hPa
Press
MSL
hPa
Rain
since 9 am
mm
Dir
 
Spd
km/h
Gust
km/h
Spd
kts
Gust
kts
25/09:30am 13.8 13.7 13.2 96 0.3 SSW 6 9 3 5 1017.7 1017.7 0.0
25/09:00am 13.9 13.6 13.4 97 0.3 SSW 7 9 4 5 1017.8 1017.8 0.8
25/08:30am 13.8 13.8 13.5 98 0.2 WSW 6 7 3 4 1017.8 1017.8 0.8
25/08:00am 13.9 14.6 13.4 97 0.3 W 2 6 1 3 1017.7 1017.7 0.8
25/07:30am 13.9 14.2 13.4 97 0.3 W 4 6 2 3 1017.6 1017.6 0.4
25/07:00am 13.9 13.6 13.3 96 0.3 SSW 7 9 4 5 1017.2 1017.2 0.4
25/06:30am 14.1 15.1 13.1 94 0.6 CALM 0 0 0 0 1017.0 1017.0 0.2
25/06:00am 14.1 14.3 13.0 93 0.6 S 4 9 2 5 1016.5 1016.5 0.0
25/05:30am 14.3 13.2 13.0 92 0.7 SSW 11 17 6 9 1016.2 1016.2 0.0
25/05:00am 14.7 13.2 13.1 90 0.9 SSW 13 19 7 10 1015.9 1015.9 0.0
25/04:30am 15.2 15.7 13.9 92 0.7 S 4 7 2 4 1015.4 1015.4 0.0
25/04:00am 14.6 15.0 13.8 95 0.4 SSE 4 6 2 3 1015.2 1015.2 0.0
25/03:30am 14.5 15.2 13.4 93 0.6 ENE 2 4 1 2 1014.8 1014.8 0.0
25/03:00am 14.8 16.0 13.7 93 0.6 CALM 0 0 0 0 1014.9 1014.9 0.0
25/02:30am 14.8 15.0 13.2 90 0.9 N 4 4 2 2 1014.5 1014.5 0.0
25/02:00am 15.3 15.5 13.2 87 1.2 W 4 6 2 3 1014.5 1014.5 0.0
25/01:30am 16.2 16.0 13.7 85 1.4 SW 7 13 4 7 1014.8 1014.8 0.0
25/01:00am 16.5 16.6 14.0 85 1.4 SW 6 9 3 5 1014.6 1014.6 0.0
25/12:30am 16.5 17.3 14.9 90 0.9 NNW 4 4 2 2 1014.4 1014.4 0.0
25/12:00am 16.6 17.8 15.0 90 0.9 N 2 6 1 3 1014.2 1014.2 0.0
 
Date/Time
EDT
Temp
°C
App
Temp
°C
Dew
Point
Rel
Hum
%
Delta-T
°C
Wind Press
QNH
hPa
Press
MSL
hPa
Rain
since 9 am
mm
Dir
 
Spd
km/h
Gust
km/h
Spd
kts
Gust
kts
24/11:30pm 17.9 19.9 15.9 88 1.2 CALM 0 0 0 0 1013.8 1013.8 0.0
24/11:00pm 17.8 18.7 16.0 89 1.1 SSW 6 9 3 5 1013.3 1013.2 0.0
24/10:30pm 18.4 20.0 16.0 86 1.4 SSW 2 6 1 3 1012.7 1012.6 0.0
24/10:00pm 18.6 19.8 15.8 84 1.7 N 4 6 2 3 1012.3 1012.2 0.0
24/09:30pm 19.5 20.4 16.2 81 2.0 N 6 7 3 4 1012.0 1011.9 0.0
24/09:00pm 19.9 21.1 16.0 78 2.3 N 4 4 2 2 1011.8 1011.7 0.0
24/08:30pm 19.8 20.9 15.7 77 2.4 N 4 6 2 3 1011.6 1011.5 0.0
24/08:00pm 21.9 23.8 15.7 68 3.7 CALM 0 0 0 0 1011.2 1011.1 0.0
24/07:30pm 22.7 24.5 15.5 64 4.3 CALM 0 2 0 1 1010.7 1010.6 0.0
24/07:00pm 25.0 26.2 15.9 57 5.6 SSW 4 6 2 3 1010.8 1010.7 0.0
24/06:30pm 24.8 25.5 16.0 58 5.4 SSW 7 11 4 6 1010.5 1010.4 0.0
24/06:00pm 25.5 25.7 15.8 55 5.9 SW 9 13 5 7 1010.3 1010.2 0.0
24/05:30pm 26.3 28.2 17.6 58 5.5 SW 4 9 2 5 1009.8 1009.7 0.0
24/05:00pm 26.3 27.7 17.9 60 5.3 SW 7 11 4 6 1009.6 1009.5 0.0
24/04:30pm 26.5 28.8 18.6 62 5.0 S 4 7 2 4 1009.2 1009.1 0.0
24/04:00pm 26.6 28.6 18.7 62 5.1 SSE 6 9 3 5 1008.9 1008.8 0.0
24/03:30pm 27.9 29.9 19.1 58 5.7 SE 7 13 4 7 1009.0 1008.9 0.0
24/03:00pm 28.4 29.6 19.1 57 6.0 SSE 11 17 6 9 1008.9 1008.8 0.0
24/02:30pm 28.3 29.7 18.7 56 6.2 ESE 9 13 5 7 1009.2 1009.1 0.0
24/02:00pm 28.4 30.4 19.1 57 6.0 SSE 7 11 4 6 1009.4 1009.3 0.0
24/01:30pm 27.5 29.5 18.8 59 5.6 SE 6 9 3 5 1009.7 1009.6 0.0
24/01:00pm 26.5 28.2 18.4 61 5.2 SSE 7 11 4 6 1010.1 1010.0 0.0
24/12:30pm 26.1 28.1 19.2 65 4.4 S 7 15 4 8 1010.4 1010.3 0.0
24/12:00pm 25.8 28.2 19.7 69 4.0 SE 6 13 3 7 1010.8 1010.7 0.0
24/11:30am 24.6 26.2 18.3 68 4.0 SSE 7 11 4 6 1011.3 1011.2 0.0
24/11:00am 24.3 26.3 17.8 67 4.1 SSE 4 7 2 4 1011.9 1011.8 0.0
24/10:30am 22.3 24.6 18.5 79 2.4 SSE 4 7 2 4 1012.3 1012.2 0.0
24/10:00am 19.8 21.4 17.0 84 1.7 SE 4 7 2 4 1012.9 1012.8 0.0
24/09:30am 17.9 19.4 16.6 92 0.8 S 4 6 2 3 1013.2 1013.1 0.0
24/09:00am 16.7 18.0 16.2 97 0.3 SSW 4 6 2 3 1013.7 1013.7 1.0
24/08:30am 15.8 17.6 15.6 99 0.1 CALM 0 0 0 0 1014.0 1014.0 0.8
24/08:00am 14.9 16.4 14.7 99 0.1 CALM 0 2 0 1 1014.3 1014.3 0.8
24/07:30am 13.8 14.6 13.6 99 0.1 NNW 2 4 1 2 1014.6 1014.6 0.8
24/07:00am 13.8 14.6 13.6 99 0.1 NNE 2 4 1 2 1014.5 1014.5 0.8
24/06:30am 14.1 15.3 13.9 99 0.1 CALM 0 0 0 0 1014.6 1014.6 0.8
24/06:00am 14.3 15.6 14.1 99 0.1 CALM 0 0 0 0 1014.7 1014.7 0.8
24/05:30am 14.4 15.0 14.2 99 0.1 NNW 4 6 2 3 1014.6 1014.6 0.8
24/05:00am 14.2 14.7 14.0 99 0.1 N 4 6 2 3 1014.9 1014.9 0.8
24/04:30am 14.6 15.3 14.4 99 0.1 WNW 4 9 2 5 1015.2 1015.2 0.8
24/04:00am 14.7 15.4 14.5 99 0.1 WNW 4 6 2 3 1015.4 1015.4 0.0
24/03:30am 14.6 16.0 14.3 98 0.2 CALM 0 0 0 0 1015.8 1015.8 0.0
24/03:00am 14.7 16.1 14.4 98 0.2 CALM 0 0 0 0 1016.4 1016.4 0.0
24/02:30am 14.9 16.4 14.6 98 0.2 CALM 0 0 0 0 1017.0 1017.0 0.0
24/02:00am 15.2 16.8 14.9 98 0.2 CALM 0 4 0 2 1017.3 1017.3 0.0
24/01:30am 15.5 17.2 15.2 98 0.2 CALM 0 0 0 0 1017.9 1017.9 0.0
24/01:00am 15.4 16.6 14.9 97 0.3 ESE 2 4 1 2 1018.2 1018.2 0.0
24/12:30am 16.0 17.1 15.5 97 0.3 SE 4 6 2 3 1018.8 1018.8 0.0
24/12:00am 16.0 17.4 15.4 96 0.3 SE 2 4 1 2 1019.1 1019.1 0.0
 
Date/Time
EDT
Temp
°C
App
Temp
°C
Dew
Point
Rel
Hum
%
Delta-T
°C
Wind Press
QNH
hPa
Press
MSL
hPa
Rain
since 9 am
mm
Dir
 
Spd
km/h
Gust
km/h
Spd
kts
Gust
kts
23/11:30pm 16.1 17.2 15.5 96 0.4 SSE 4 6 2 3 1019.3 1019.3 0.0
23/11:00pm 16.0 17.4 15.5 97 0.3 E 2 4 1 2 1019.4 1019.4 0.0
23/10:30pm 16.0 17.8 15.5 97 0.3 CALM 0 0 0 0 1019.7 1019.7 0.0
23/10:00pm 15.9 17.4 15.6 98 0.2 E 2 6 1 3 1019.9 1019.9 0.0
23/09:30pm 15.9 17.0 15.6 98 0.2 ESE 4 7 2 4 1019.9 1019.9 0.0
23/09:00pm 15.9 17.0 15.6 98 0.2 ESE 4 7 2 4 1019.9 1019.9 0.0
23/08:30pm 15.8 16.8 15.3 97 0.3 SE 4 7 2 4 1020.0 1020.0 0.0
23/08:00pm 15.9 16.9 15.4 97 0.3 SE 4 9 2 5 1020.0 1020.0 0.0
23/07:30pm 15.9 16.9 15.3 96 0.3 SE 4 7 2 4 1019.9 1019.9 0.0
23/07:00pm 16.0 16.9 15.2 95 0.5 SE 4 7 2 4 1020.2 1020.2 0.0
23/06:30pm 16.1 16.6 15.1 94 0.6 ESE 6 9 3 5 1019.6 1019.6 0.0
23/06:00pm 16.2 16.7 15.1 93 0.6 SE 6 13 3 7 1019.8 1019.8 0.0
23/05:30pm 16.4 16.7 14.9 91 0.9 ESE 7 17 4 9 1019.6 1019.6 0.0
23/05:00pm 16.3 16.6 15.0 92 0.8 ESE 7 13 4 7 1019.4 1019.4 0.0
23/04:30pm 16.7 16.6 14.9 89 1.0 SE 9 19 5 10 1019.6 1019.6 0.0
23/04:00pm 16.9 16.8 14.9 88 1.2 SE 9 19 5 10 1019.5 1019.5 0.0
23/03:30pm 17.2 17.1 15.0 87 1.3 SSE 9 19 5 10 1019.6 1019.6 0.0
23/03:00pm 17.4 17.2 14.7 84 1.6 SSE 9 20 5 11 1019.6 1019.6 0.0
23/02:30pm 17.6 17.4 14.7 83 1.7 SSE 9 15 5 8 1019.9 1019.9 0.0
23/02:00pm 17.9 17.4 15.0 83 1.7 SSE 11 17 6 9 1020.2 1020.2 0.0
23/01:30pm 17.9 17.9 15.3 85 1.5 S 9 15 5 8 1020.4 1020.4 0.0
23/01:00pm 17.9 17.9 15.2 84 1.6 S 9 15 5 8 1020.3 1020.3 0.0
23/12:30pm 18.4 18.0 15.3 82 1.8 S 11 17 6 9 1020.3 1020.3 0.0
23/12:00pm 18.7 18.9 15.8 83 1.7 S 9 13 5 7 1020.6 1020.6 0.0
23/11:30am 18.0 17.2 15.1 83 1.7 SSW 13 19 7 10 1020.6 1020.6 0.0
23/11:00am 18.5 18.6 15.6 83 1.7 SSW 9 17 5 9 1020.5 1020.5 0.0
23/10:30am 18.8 19.6 15.9 83 1.7 S 6 15 3 8 1020.4 1020.4 0.0
23/10:00am 18.3 18.3 15.2 82 1.8 S 9 13 5 7 1020.2 1020.2 0.0
23/09:30am 18.7 18.8 15.4 81 1.9 S 9 15 5 8 1020.0 1020.0 0.0
23/09:00am 18.7 19.1 15.4 81 1.9 SW 7 13 4 7 1019.6 1019.6 0.6
23/08:30am 18.6 18.9 15.1 80 2.1 SSW 7 13 4 7 1019.1 1019.1 0.6
23/08:00am 18.5 18.1 14.2 76 2.5 SW 9 13 5 7 1018.6 1018.6 0.6
23/07:30am 18.2 16.5 13.7 75 2.6 WSW 15 24 8 13 1017.9 1017.9 0.6
23/07:00am 17.1 16.2 13.8 81 1.9 W 11 22 6 12 1016.9 1016.9 0.6
23/06:30am 17.9 17.8 13.8 77 2.3 ENE 7 11 4 6 1015.4 1015.4 0.6
23/06:00am 18.7 18.2 13.8 73 2.8 NE 9 17 5 9 1016.1 1016.1 0.6
23/05:30am 17.6 17.1 14.9 84 1.6 N 11 19 6 10 1017.8 1017.8 0.6
23/05:00am 18.2 17.9 14.3 78 2.2 W 9 17 5 9 1017.6 1017.6 0.0
23/04:30am 18.4 18.0 14.1 76 2.5 NW 9 17 5 9 1017.3 1017.3 0.0
23/04:00am 16.4 16.3 13.3 82 1.7 WNW 6 11 3 6 1016.9 1016.9 0.0
23/03:30am 17.2 16.8 13.1 77 2.3 N 7 7 4 4 1015.8 1015.8 0.0
23/03:00am 16.5 16.3 13.0 80 2.0 ESE 6 9 3 5 1016.0 1016.0 0.0
23/02:30am 18.8 18.7 13.4 71 3.1 NNW 6 9 3 5 1016.1 1016.1 0.0
23/02:00am 17.6 18.1 12.7 73 2.7 NNW 2 6 1 3 1015.8 1015.8 0.0
23/01:30am 17.8 18.1 13.5 76 2.4 NNW 4 6 2 3 1015.6 1015.6 0.0
23/01:00am 16.5 16.2 12.7 78 2.1 W 6 11 3 6 1015.6 1015.6 0.0
23/12:30am 17.4 17.9 12.7 74 2.6 WNW 2 6 1 3 1015.8 1015.8 0.0
23/12:00am 17.0 17.5 12.7 76 2.4 E 2 7 1 4 1016.3 1016.3 0.0
 
Date/Time
EDT
Temp
°C
App
Temp
°C
Dew
Point
Rel
Hum
%
Delta-T
°C
Wind Press
QNH
hPa
Press
MSL
hPa
Rain
since 9 am
mm
Dir
 
Spd
km/h
Gust
km/h
Spd
kts
Gust
kts
22/11:30pm 18.2 18.8 12.0 67 3.4 CALM 0 0 0 0 1016.8 1016.8 0.0
22/11:00pm 18.3 18.9 11.8 66 3.6 CALM 0 0 0 0 1016.7 1016.7 0.0
22/10:30pm 17.2 16.8 12.5 74 2.6 N 6 6 3 3 1016.5 1016.5 0.0
22/10:00pm 18.4 18.9 11.7 65 3.7 CALM 0 0 0 0 1016.7 1016.7 0.0
22/09:30pm 19.8 20.5 12.1 61 4.3 CALM 0 0 0 0 1016.8 1016.8 0.0
22/09:00pm 19.6 20.3 12.1 62 4.2 CALM 0 4 0 2 1016.8 1016.8 0.0
22/08:30pm 20.3 20.4 11.5 57 4.9 E 2 6 1 3 1016.6 1016.6 0.0
22/08:00pm 21.4 21.3 12.0 55 5.3 ENE 4 7 2 4 1016.5 1016.5 0.0
22/07:30pm 20.9 20.5 12.3 58 4.8 E 6 7 3 4 1016.4 1016.4 0.0
22/07:00pm 22.8 22.7 13.3 55 5.5 ESE 6 9 3 5 1016.3 1016.3 0.0
22/06:30pm 24.0 24.3 14.4 55 5.7 SE 6 9 3 5 1016.1 1016.1 0.0
22/06:00pm 24.8 24.4 13.0 47 6.9 SE 7 11 4 6 1016.2 1016.2 0.0
22/05:30pm 25.5 25.2 13.4 47 7.1 SE 7 13 4 7 1016.3 1016.3 0.0
22/05:00pm 25.8 25.3 12.6 44 7.6 SE 7 11 4 6 1016.5 1016.5 0.0
22/04:30pm 25.9 25.1 11.6 40 8.2 SE 7 13 4 7 1016.6 1016.6 0.0
22/04:00pm 25.9 25.7 13.7 47 7.2 SE 7 15 4 8 1016.7 1016.7 0.0
22/03:30pm 25.8 24.9 12.6 44 7.7 SSE 9 15 5 8 1017.2 1017.2 0.0
22/03:00pm 26.4 26.1 14.5 48 7.1 S 9 17 5 9 1017.5 1017.5 0.0
22/02:30pm 26.5 26.3 14.6 48 7.2 S 9 19 5 10 1017.7 1017.7 0.0
22/02:00pm 26.3 25.8 15.0 49 6.8 S 11 19 6 10 1017.8 1017.8 0.0
22/01:30pm 27.1 27.4 14.5 46 7.6 SW 6 13 3 7 1018.2 1018.2 0.0
22/01:00pm 26.3 26.3 14.1 47 7.3 WSW 7 15 4 8 1018.7 1018.7 0.0
22/12:30pm 26.1 26.9 14.9 50 6.8 SSW 4 9 2 5 1018.7 1018.7 0.0
22/12:00pm 25.9 26.4 14.1 48 7.0 NNW 4 7 2 4 1019.1 1019.1 0.0
22/11:30am 25.2 25.3 12.8 46 7.2 WNW 4 7 2 4 1019.6 1019.6 0.0
22/11:00am 24.5 24.8 13.4 50 6.5 WNW 4 7 2 4 1020.1 1020.1 0.0
22/10:30am 23.7 24.1 13.8 53 5.8 NW 4 7 2 4 1020.4 1020.4 0.0
22/10:00am 22.6 22.8 13.1 55 5.5 NW 4 9 2 5 1020.7 1020.7 0.0

Other Formats:

Comma delimited format used in spreadsheet applications
http://www.bom.gov.au/fwo/IDV60801/IDV60801.95918.axf

JavaScript Object Notation format (JSON) in row-major order
http://www.bom.gov.au/fwo/IDV60801/IDV60801.95918.json